Time;durP1;ratioP1;P1;durP2;ratioP2;P2;SDS_P1;SDS_P2;PMS_P1;PMS_P2;Temp;Humidity;BMP_temperature;BMP_pressure;BME280_temperature;BME280_humidity;BME280_pressure;Samples;Min_cycle;Max_cycle;Signal;HPM_P1;HPM_P2
2023/06/15 00:01:56;;;;;;;8.00;2.50;;;;;;;;;;5127622;27;20035;-69
2023/06/15 00:04:22;;;;;;;6.70;2.35;;;;;;;;;;5130583;27;20514;-69
2023/06/15 00:06:48;;;;;;;8.05;2.72;;;;;;;;;;5105351;27;20046;-69
2023/06/15 00:09:14;;;;;;;7.38;2.25;;;;;;;;;;5105226;27;20112;-69
2023/06/15 00:11:40;;;;;;;6.90;2.47;;;;;;;;;;5118400;27;21416;-69
2023/06/15 00:14:07;;;;;;;5.88;2.35;;;;;;;;;;5118813;27;20039;-69
2023/06/15 00:16:41;;;;;;;10.70;3.45;;;;;;;;;;5119797;27;20031;-69
2023/06/15 00:19:08;;;;;;;7.63;2.50;;;;;;;;;;5119597;27;20419;-69
2023/06/15 00:21:40;;;;;;;15.80;3.50;;;;;;;;;;5106103;27;20388;-69
2023/06/15 00:24:07;;;;;;;7.82;3.20;;;;;;;;;;5115875;27;20515;-69
2023/06/15 00:26:33;;;;;;;8.50;2.97;;;;;;;;;;5110793;27;20070;-69
2023/06/15 00:28:59;;;;;;;6.03;2.60;;;;;;;;;;5114165;27;20103;-69
2023/06/15 00:31:25;;;;;;;8.52;2.80;;;;;;;;;;5105942;27;20046;-69
2023/06/15 00:33:52;;;;;;;7.45;2.63;;;;;;;;;;5114330;28;20074;-69
2023/06/15 00:36:18;;;;;;;11.30;3.05;;;;;;;;;;5109679;28;20047;-69
2023/06/15 00:38:45;;;;;;;6.55;2.83;;;;;;;;;;5111493;27;20046;-69
2023/06/15 00:41:11;;;;;;;6.97;2.80;;;;;;;;;;5131634;27;20107;-69
2023/06/15 00:43:37;;;;;;;5.30;2.20;;;;;;;;;;5131407;27;20039;-69
2023/06/15 00:46:03;;;;;;;8.10;2.95;;;;;;;;;;5110161;28;20492;-69
2023/06/15 00:48:30;;;;;;;6.95;2.90;;;;;;;;;;5104793;27;20335;-69
2023/06/15 00:50:56;;;;;;;10.05;2.55;;;;;;;;;;5129057;27;20039;-69
2023/06/15 00:53:23;;;;;;;9.45;2.60;;;;;;;;;;5129200;28;20041;-69
2023/06/15 00:55:50;;;;;;;6.13;2.33;;;;;;;;;;5112400;28;20054;-69
2023/06/15 00:58:17;;;;;;;8.70;2.97;;;;;;;;;;5100131;28;20376;-69
2023/06/15 01:00:48;;;;;;;5.97;2.50;;;;;;;;;;5145528;27;20049;-69
2023/06/15 01:03:20;;;;;;;8.25;2.67;;;;;;;;;;5123243;27;20054;-69
2023/06/15 01:05:47;;;;;;;6.32;2.70;;;;;;;;;;5108703;28;20035;-69
2023/06/15 01:08:15;;;;;;;4.72;2.78;;;;;;;;;;5128396;28;20051;-69
2023/06/15 01:10:42;;;;;;;5.63;2.63;;;;;;;;;;5129979;28;20051;-69
2023/06/15 01:13:10;;;;;;;12.02;2.88;;;;;;;;;;5132073;28;20483;-69
2023/06/15 01:15:37;;;;;;;10.60;2.72;;;;;;;;;;5129979;27;20043;-69
2023/06/15 01:18:05;;;;;;;7.80;2.88;;;;;;;;;;5121563;27;20108;-69
2023/06/15 01:20:32;;;;;;;13.98;3.80;;;;;;;;;;5130562;28;20062;-69
2023/06/15 01:23:10;;;;;;;6.60;2.45;;;;;;;;;;5133152;27;20035;-69
2023/06/15 01:25:37;;;;;;;4.85;2.85;;;;;;;;;;5115179;27;20459;-69
2023/06/15 01:28:05;;;;;;;7.30;3.03;;;;;;;;;;5134391;27;20139;-69
2023/06/15 01:30:40;;;;;;;7.20;2.78;;;;;;;;;;5133824;27;20051;-69
2023/06/15 01:33:06;;;;;;;6.88;3.00;;;;;;;;;;5116238;27;20100;-69
2023/06/15 01:35:32;;;;;;;6.93;3.08;;;;;;;;;;5113295;27;20128;-69
2023/06/15 01:37:58;;;;;;;6.93;3.05;;;;;;;;;;5115066;27;20051;-69
2023/06/15 01:40:25;;;;;;;9.02;3.28;;;;;;;;;;5132796;27;20080;-69
2023/06/15 01:42:51;;;;;;;7.95;3.00;;;;;;;;;;5112854;27;20106;-69
2023/06/15 01:45:19;;;;;;;7.22;2.88;;;;;;;;;;5120992;27;21890;-69
2023/06/15 01:47:46;;;;;;;8.57;3.00;;;;;;;;;;5125433;27;20035;-69
2023/06/15 01:50:12;;;;;;;10.43;3.17;;;;;;;;;;5119832;27;20099;-69
2023/06/15 01:52:38;;;;;;;11.07;3.17;;;;;;;;;;5104387;27;20075;-69
2023/06/15 01:55:07;;;;;;;4.40;2.58;;;;;;;;;;5103191;27;20075;-69
2023/06/15 01:57:40;;;;;;;7.43;2.92;;;;;;;;;;5119662;27;20043;-69
2023/06/15 02:00:07;;;;;;;10.85;3.50;;;;;;;;;;5104430;27;20162;-69
2023/06/15 02:02:33;;;;;;;6.30;3.08;;;;;;;;;;5136012;27;20122;-69
2023/06/15 02:05:00;;;;;;;7.53;4.13;;;;;;;;;;5122900;27;20065;-69
2023/06/15 02:07:26;;;;;;;10.27;3.25;;;;;;;;;;5121460;27;20042;-69
2023/06/15 02:09:53;;;;;;;6.78;3.15;;;;;;;;;;5101933;27;20095;-69
2023/06/15 02:12:19;;;;;;;5.47;3.28;;;;;;;;;;5120701;27;20067;-69
2023/06/15 02:14:48;;;;;;;8.48;3.65;;;;;;;;;;5120052;27;20553;-69
2023/06/15 02:17:14;;;;;;;6.65;3.35;;;;;;;;;;5102665;27;20404;-69
2023/06/15 02:19:41;;;;;;;9.52;3.20;;;;;;;;;;5105887;27;20039;-69
2023/06/15 02:22:07;;;;;;;7.88;2.85;;;;;;;;;;5105458;27;20043;-69
2023/06/15 02:24:33;;;;;;;9.15;3.20;;;;;;;;;;5119817;27;20047;-69
2023/06/15 02:26:59;;;;;;;7.57;3.55;;;;;;;;;;5145282;27;20035;-69
2023/06/15 02:29:26;;;;;;;13.00;3.28;;;;;;;;;;5133485;27;20502;-69
2023/06/15 02:31:52;;;;;;;7.45;3.83;;;;;;;;;;5115374;27;20480;-69
2023/06/15 02:34:18;;;;;;;6.57;3.50;;;;;;;;;;5131688;27;20034;-69
2023/06/15 02:36:46;;;;;;;11.95;3.45;;;;;;;;;;5124181;27;20096;-69
2023/06/15 02:39:13;;;;;;;8.43;3.22;;;;;;;;;;5122084;27;20051;-69
2023/06/15 02:41:39;;;;;;;6.40;3.72;;;;;;;;;;5108144;27;20035;-69
2023/06/15 02:44:07;;;;;;;6.32;3.10;;;;;;;;;;5117105;27;20042;-69
2023/06/15 02:46:33;;;;;;;7.47;3.70;;;;;;;;;;5120379;27;20043;-69
2023/06/15 02:48:59;;;;;;;6.53;3.60;;;;;;;;;;5121664;27;20554;-69
2023/06/15 02:51:26;;;;;;;7.80;3.55;;;;;;;;;;5122014;27;20039;-69
2023/06/15 02:53:52;;;;;;;7.00;3.80;;;;;;;;;;5103296;27;20035;-69
2023/06/15 02:56:19;;;;;;;16.13;4.10;;;;;;;;;;5103428;27;20154;-69
2023/06/15 02:58:53;;;;;;;6.68;3.80;;;;;;;;;;5121888;27;20114;-69
2023/06/15 03:01:21;;;;;;;12.45;4.15;;;;;;;;;;5147679;27;20062;-69
2023/06/15 03:03:47;;;;;;;7.32;4.07;;;;;;;;;;5134599;27;20174;-69
2023/06/15 03:06:18;;;;;;;9.38;4.13;;;;;;;;;;5103711;27;20047;-69
2023/06/15 03:08:45;;;;;;;13.18;4.72;;;;;;;;;;5121565;27;20554;-69
2023/06/15 03:11:11;;;;;;;7.97;4.38;;;;;;;;;;5118695;27;20130;-69
2023/06/15 03:13:37;;;;;;;9.27;4.45;;;;;;;;;;5119612;27;20140;-69
2023/06/15 03:16:07;;;;;;;13.65;4.47;;;;;;;;;;5121185;27;20035;-69
2023/06/15 03:18:33;;;;;;;9.63;4.68;;;;;;;;;;5101111;27;20187;-69
2023/06/15 03:20:59;;;;;;;9.90;4.28;;;;;;;;;;5101230;27;20132;-68
2023/06/15 03:23:25;;;;;;;8.52;4.50;;;;;;;;;;5104320;27;21044;-69
2023/06/15 03:25:52;;;;;;;9.02;4.78;;;;;;;;;;5120068;27;20035;-69
2023/06/15 03:28:27;;;;;;;10.10;4.75;;;;;;;;;;5121046;27;20044;-69
2023/06/15 03:30:56;;;;;;;6.30;4.22;;;;;;;;;;5116320;27;20058;-68
2023/06/15 03:33:23;;;;;;;11.25;4.72;;;;;;;;;;5120826;27;20039;-69
2023/06/15 03:35:50;;;;;;;10.05;5.68;;;;;;;;;;5107393;27;20051;-68
2023/06/15 03:38:16;;;;;;;10.23;4.95;;;;;;;;;;5084942;27;20047;-69
2023/06/15 03:40:42;;;;;;;15.32;6.20;;;;;;;;;;5103025;27;20047;-69
2023/06/15 03:43:10;;;;;;;8.57;4.47;;;;;;;;;;5103844;27;20046;-69
2023/06/15 03:45:36;;;;;;;10.05;5.13;;;;;;;;;;5100389;27;20123;-69
2023/06/15 03:48:02;;;;;;;13.85;5.35;;;;;;;;;;5105972;27;20118;-69
2023/06/15 03:50:28;;;;;;;9.10;4.78;;;;;;;;;;5101297;27;20043;-68
2023/06/15 03:52:54;;;;;;;7.75;4.70;;;;;;;;;;5121184;27;20490;-69
2023/06/15 03:55:21;;;;;;;10.60;4.95;;;;;;;;;;5130938;27;20375;-69
2023/06/15 03:57:47;;;;;;;10.00;4.90;;;;;;;;;;5111176;27;20046;-69
2023/06/15 04:00:13;;;;;;;7.65;4.85;;;;;;;;;;5131632;27;20484;-69
2023/06/15 04:02:40;;;;;;;7.53;4.85;;;;;;;;;;5110973;27;20119;-69
2023/06/15 04:05:06;;;;;;;8.55;5.00;;;;;;;;;;5114374;27;20039;-69
2023/06/15 04:07:33;;;;;;;8.07;5.13;;;;;;;;;;5101499;27;20044;-69
2023/06/15 04:09:59;;;;;;;10.43;5.40;;;;;;;;;;5125444;27;20407;-69
2023/06/15 04:12:25;;;;;;;9.18;5.45;;;;;;;;;;5119068;27;20046;-68
2023/06/15 04:14:51;;;;;;;9.45;5.13;;;;;;;;;;5129743;27;20049;-69
2023/06/15 04:17:18;;;;;;;9.20;4.72;;;;;;;;;;5102582;27;20077;-69
2023/06/15 04:19:44;;;;;;;12.55;5.25;;;;;;;;;;5119512;27;20118;-69
2023/06/15 04:22:11;;;;;;;7.63;5.30;;;;;;;;;;5116873;27;20730;-69
2023/06/15 04:24:37;;;;;;;12.30;4.82;;;;;;;;;;5098255;27;20142;-68
2023/06/15 04:27:03;;;;;;;8.10;4.95;;;;;;;;;;5119156;27;20781;-69
2023/06/15 04:29:30;;;;;;;10.55;5.78;;;;;;;;;;5118246;27;20055;-69
2023/06/15 04:31:57;;;;;;;12.93;5.57;;;;;;;;;;5118826;27;20059;-66
2023/06/15 04:34:26;;;;;;;9.63;5.32;;;;;;;;;;5131188;27;20534;-66
2023/06/15 04:36:56;;;;;;;9.93;5.53;;;;;;;;;;5123674;27;20042;-66
2023/06/15 04:39:25;;;;;;;10.88;5.80;;;;;;;;;;5127319;27;20039;-66
2023/06/15 04:41:52;;;;;;;9.18;6.00;;;;;;;;;;5149631;27;20130;-66
2023/06/15 04:44:18;;;;;;;9.32;5.78;;;;;;;;;;5127486;27;20074;-66
2023/06/15 04:46:47;;;;;;;11.55;6.10;;;;;;;;;;5125940;27;20047;-66
2023/06/15 04:49:13;;;;;;;10.32;5.72;;;;;;;;;;5111866;28;20058;-66
2023/06/15 04:51:40;;;;;;;12.52;5.95;;;;;;;;;;5131750;27;20091;-65
2023/06/15 04:54:06;;;;;;;9.48;5.75;;;;;;;;;;5114228;28;20074;-66
2023/06/15 04:56:32;;;;;;;11.25;6.00;;;;;;;;;;5134952;27;20062;-66
2023/06/15 04:58:58;;;;;;;9.55;5.72;;;;;;;;;;5138808;27;20436;-66
2023/06/15 05:01:24;;;;;;;9.02;5.88;;;;;;;;;;5121193;27;20449;-66
2023/06/15 05:03:51;;;;;;;8.85;6.35;;;;;;;;;;5139021;27;20043;-66
2023/06/15 05:06:17;;;;;;;11.20;5.68;;;;;;;;;;5137865;27;20041;-66
2023/06/15 05:08:43;;;;;;;10.63;5.72;;;;;;;;;;5135554;27;20035;-66
2023/06/15 05:11:10;;;;;;;9.25;6.28;;;;;;;;;;5120916;27;20372;-69
2023/06/15 05:13:36;;;;;;;10.57;5.72;;;;;;;;;;5120094;27;20135;-69
2023/06/15 05:16:02;;;;;;;10.82;5.72;;;;;;;;;;5139168;27;20091;-69
2023/06/15 05:18:28;;;;;;;12.90;6.50;;;;;;;;;;5136643;27;20073;-69
2023/06/15 05:20:55;;;;;;;9.65;5.53;;;;;;;;;;5138639;27;20035;-69
2023/06/15 05:23:22;;;;;;;8.57;5.38;;;;;;;;;;5120909;27;20043;-70
2023/06/15 05:25:48;;;;;;;13.10;5.60;;;;;;;;;;5136636;27;20043;-69
2023/06/15 05:28:16;;;;;;;7.03;4.60;;;;;;;;;;5119398;27;20039;-70
2023/06/15 05:30:42;;;;;;;6.53;4.82;;;;;;;;;;5105102;28;20052;-70
2023/06/15 05:33:08;;;;;;;7.93;4.13;;;;;;;;;;5098902;28;20043;-68
2023/06/15 05:35:34;;;;;;;7.05;4.00;;;;;;;;;;5116492;27;20039;-70
2023/06/15 05:38:01;;;;;;;9.77;3.97;;;;;;;;;;5118631;28;20043;-70
2023/06/15 05:40:27;;;;;;;9.27;4.20;;;;;;;;;;5099526;28;20087;-70
2023/06/15 05:42:54;;;;;;;9.45;3.95;;;;;;;;;;5100524;28;20055;-69
2023/06/15 05:45:20;;;;;;;8.38;4.03;;;;;;;;;;5082614;28;20451;-69
2023/06/15 05:47:46;;;;;;;8.25;3.33;;;;;;;;;;5084967;28;20043;-69
2023/06/15 05:50:13;;;;;;;7.18;3.50;;;;;;;;;;5119293;27;20040;-69
2023/06/15 05:52:39;;;;;;;7.70;3.80;;;;;;;;;;5100308;28;20048;-70
2023/06/15 05:55:05;;;;;;;7.93;3.30;;;;;;;;;;5099472;28;20047;-69
2023/06/15 05:57:31;;;;;;;7.18;3.25;;;;;;;;;;5118056;28;20158;-69
2023/06/15 05:59:58;;;;;;;11.63;3.60;;;;;;;;;;5117221;28;20039;-67
2023/06/15 06:02:24;;;;;;;6.80;3.20;;;;;;;;;;5117301;28;20039;-69
2023/06/15 06:04:50;;;;;;;9.05;3.10;;;;;;;;;;5098853;28;20050;-69
2023/06/15 06:07:16;;;;;;;7.22;2.85;;;;;;;;;;5080669;28;20229;-69
2023/06/15 06:09:43;;;;;;;6.95;3.92;;;;;;;;;;5104531;28;20096;-69
2023/06/15 06:12:09;;;;;;;7.15;3.40;;;;;;;;;;5090853;28;20483;-69
2023/06/15 06:14:35;;;;;;;6.75;3.40;;;;;;;;;;5096202;28;20053;-69
2023/06/15 06:17:02;;;;;;;7.78;3.13;;;;;;;;;;5114564;28;20118;-69
2023/06/15 06:19:28;;;;;;;7.80;3.33;;;;;;;;;;5096642;28;20047;-69
2023/06/15 06:21:54;;;;;;;9.55;3.10;;;;;;;;;;5111794;28;20368;-69
2023/06/15 06:24:20;;;;;;;5.97;2.60;;;;;;;;;;5096272;28;20071;-69
2023/06/15 06:26:46;;;;;;;7.00;2.78;;;;;;;;;;5114827;27;20054;-69
2023/06/15 06:29:13;;;;;;;5.70;2.58;;;;;;;;;;5116277;27;20473;-69
2023/06/15 06:31:39;;;;;;;5.85;2.78;;;;;;;;;;5116392;27;20062;-69
2023/06/15 06:34:05;;;;;;;12.65;4.70;;;;;;;;;;5135119;27;20031;-69
2023/06/15 06:36:32;;;;;;;7.78;2.95;;;;;;;;;;5115831;27;20070;-69
2023/06/15 06:38:58;;;;;;;8.35;3.78;;;;;;;;;;5135357;27;20039;-69
2023/06/15 06:41:25;;;;;;;6.85;2.90;;;;;;;;;;5133362;27;20047;-69
2023/06/15 06:43:52;;;;;;;6.68;2.40;;;;;;;;;;5114986;27;20050;-69
2023/06/15 06:46:18;;;;;;;7.43;2.65;;;;;;;;;;5109670;28;20111;-69
2023/06/15 06:48:45;;;;;;;6.95;2.60;;;;;;;;;;5109089;27;20055;-69
2023/06/15 06:51:11;;;;;;;5.88;3.08;;;;;;;;;;5113915;27;20413;-69
2023/06/15 06:53:37;;;;;;;12.13;3.15;;;;;;;;;;5116176;27;20047;-69
2023/06/15 06:56:03;;;;;;;5.80;2.47;;;;;;;;;;5114216;27;20099;-69
2023/06/15 06:58:29;;;;;;;9.25;3.03;;;;;;;;;;5132821;27;20088;-68
2023/06/15 07:00:55;;;;;;;4.90;2.35;;;;;;;;;;5134308;27;20558;-69
2023/06/15 07:03:22;;;;;;;6.03;2.30;;;;;;;;;;5116392;27;20062;-69
2023/06/15 07:05:48;;;;;;;6.10;2.30;;;;;;;;;;5115624;27;20039;-69
2023/06/15 07:08:14;;;;;;;5.63;2.25;;;;;;;;;;5134331;27;20522;-69
2023/06/15 07:10:40;;;;;;;5.72;2.30;;;;;;;;;;5116256;27;20059;-69
2023/06/15 07:13:06;;;;;;;6.60;2.42;;;;;;;;;;5113969;27;20455;-68
2023/06/15 07:15:33;;;;;;;5.35;2.42;;;;;;;;;;5133653;27;20067;-69
2023/06/15 07:17:59;;;;;;;6.57;2.53;;;;;;;;;;5133492;27;20047;-69
2023/06/15 07:20:25;;;;;;;7.45;2.45;;;;;;;;;;5111207;27;20040;-69
2023/06/15 07:22:51;;;;;;;6.95;2.28;;;;;;;;;;5131219;27;20091;-69
2023/06/15 07:25:17;;;;;;;9.23;2.60;;;;;;;;;;5132764;27;20162;-69
2023/06/15 07:27:43;;;;;;;6.82;2.25;;;;;;;;;;5115721;27;20047;-69
2023/06/15 07:30:10;;;;;;;5.53;2.67;;;;;;;;;;5115252;27;20490;-68
2023/06/15 07:32:36;;;;;;;5.00;2.17;;;;;;;;;;5115052;27;20055;-70
2023/06/15 07:35:03;;;;;;;8.02;2.55;;;;;;;;;;5115409;27;20046;-70
2023/06/15 07:37:29;;;;;;;6.55;2.67;;;;;;;;;;5114709;27;20529;-70
2023/06/15 07:39:55;;;;;;;7.15;2.00;;;;;;;;;;5132948;27;20039;-70
2023/06/15 07:42:21;;;;;;;7.68;2.05;;;;;;;;;;5115687;27;20150;-70
2023/06/15 07:44:47;;;;;;;7.78;2.25;;;;;;;;;;5133529;27;20058;-70
2023/06/15 07:47:13;;;;;;;7.50;2.38;;;;;;;;;;5099895;27;20126;-70
2023/06/15 07:49:40;;;;;;;11.80;2.85;;;;;;;;;;5132631;27;20039;-70
2023/06/15 07:52:06;;;;;;;5.90;2.17;;;;;;;;;;5116665;27;20402;-70
2023/06/15 07:54:32;;;;;;;9.07;2.35;;;;;;;;;;5132830;27;20119;-70
2023/06/15 07:56:58;;;;;;;4.68;2.42;;;;;;;;;;5115241;27;20038;-70
2023/06/15 07:59:25;;;;;;;7.97;2.35;;;;;;;;;;5114940;27;20054;-70
2023/06/15 08:01:51;;;;;;;4.93;2.15;;;;;;;;;;5113847;27;20076;-70
2023/06/15 08:04:17;;;;;;;5.13;2.20;;;;;;;;;;5133827;27;20057;-70
2023/06/15 08:06:43;;;;;;;6.70;2.00;;;;;;;;;;5117610;27;20046;-70
2023/06/15 08:09:11;;;;;;;11.25;2.35;;;;;;;;;;5113398;27;20487;-70
2023/06/15 08:11:37;;;;;;;8.48;2.05;;;;;;;;;;5133367;27;20039;-70
2023/06/15 08:14:04;;;;;;;5.57;2.08;;;;;;;;;;5133175;27;20500;-70
2023/06/15 08:16:30;;;;;;;7.28;2.40;;;;;;;;;;5112997;27;20043;-70
2023/06/15 08:18:56;;;;;;;4.35;2.05;;;;;;;;;;5107503;27;20044;-72
2023/06/15 08:21:22;;;;;;;5.85;2.45;;;;;;;;;;5109416;27;20039;-70
2023/06/15 08:23:48;;;;;;;6.35;1.98;;;;;;;;;;5133054;27;20027;-70
2023/06/15 08:26:15;;;;;;;5.22;2.35;;;;;;;;;;5132857;27;20123;-70
2023/06/15 08:28:41;;;;;;;3.88;1.60;;;;;;;;;;5132013;27;20039;-70
2023/06/15 08:31:07;;;;;;;5.90;1.98;;;;;;;;;;5113250;27;20074;-69
2023/06/15 08:33:34;;;;;;;8.90;2.00;;;;;;;;;;5132040;27;20248;-70
2023/06/15 08:36:00;;;;;;;6.45;3.28;;;;;;;;;;5132087;27;20043;-70
2023/06/15 08:38:26;;;;;;;4.38;2.10;;;;;;;;;;5132953;27;20490;-70
2023/06/15 08:40:52;;;;;;;8.10;2.47;;;;;;;;;;5132621;27;20143;-70
2023/06/15 08:43:19;;;;;;;6.20;2.20;;;;;;;;;;5132012;27;20043;-70
2023/06/15 08:45:48;;;;;;;3.55;1.80;;;;;;;;;;5111218;27;20570;-70
2023/06/15 08:48:16;;;;;;;6.25;2.25;;;;;;;;;;5114066;28;20043;-70
2023/06/15 08:50:44;;;;;;;7.57;2.33;;;;;;;;;;5098873;28;20047;-70
2023/06/15 08:53:12;;;;;;;6.13;2.20;;;;;;;;;;5113581;28;20062;-70
2023/06/15 08:55:38;;;;;;;4.75;2.15;;;;;;;;;;5114118;28;20042;-70
2023/06/15 08:58:05;;;;;;;8.63;1.90;;;;;;;;;;5113492;28;20066;-70
2023/06/15 09:00:32;;;;;;;4.72;2.17;;;;;;;;;;5132682;28;20031;-70
2023/06/15 09:03:00;;;;;;;4.82;1.80;;;;;;;;;;5114476;28;20118;-70
2023/06/15 09:05:26;;;;;;;6.80;2.72;;;;;;;;;;5131637;28;20055;-70
2023/06/15 09:07:53;;;;;;;5.07;2.53;;;;;;;;;;5113838;28;20145;-70
2023/06/15 09:10:20;;;;;;;5.10;2.10;;;;;;;;;;5114099;28;20395;-70
2023/06/15 09:12:47;;;;;;;5.05;2.20;;;;;;;;;;5113027;28;20107;-70
2023/06/15 09:15:24;;;;;;;4.07;1.60;;;;;;;;;;5114233;28;20111;-70
2023/06/15 09:17:53;;;;;;;4.53;2.05;;;;;;;;;;5131273;28;20046;-70
2023/06/15 09:20:20;;;;;;;8.90;2.00;;;;;;;;;;5111536;28;20501;-70
2023/06/15 09:22:47;;;;;;;4.82;2.03;;;;;;;;;;5115311;28;20107;-71
2023/06/15 09:25:13;;;;;;;6.38;2.05;;;;;;;;;;5131388;28;20040;-72
2023/06/15 09:27:40;;;;;;;4.13;1.92;;;;;;;;;;5113443;28;20035;-70
2023/06/15 09:30:07;;;;;;;7.13;1.75;;;;;;;;;;5129372;27;20560;-70
2023/06/15 09:32:34;;;;;;;4.95;2.38;;;;;;;;;;5123059;27;20076;-70
2023/06/15 09:35:01;;;;;;;6.30;2.65;;;;;;;;;;5106104;28;20051;-70
2023/06/15 09:37:27;;;;;;;4.65;1.88;;;;;;;;;;5113763;28;20486;-70
2023/06/15 09:39:54;;;;;;;8.15;2.60;;;;;;;;;;5131833;28;20088;-71
2023/06/15 09:42:29;;;;;;;4.65;1.98;;;;;;;;;;5132206;27;20092;-68
2023/06/15 09:45:05;;;;;;;6.07;2.13;;;;;;;;;;5133777;27;20058;-69
2023/06/15 09:47:32;;;;;;;5.80;2.10;;;;;;;;;;5114298;27;20542;-68
2023/06/15 09:50:01;;;;;;;3.67;2.03;;;;;;;;;;5117562;27;20042;-69
2023/06/15 09:52:27;;;;;;;4.65;1.98;;;;;;;;;;5151944;27;20486;-69
2023/06/15 09:54:54;;;;;;;4.60;1.95;;;;;;;;;;5115727;27;20490;-69
2023/06/15 09:57:20;;;;;;;8.02;2.05;;;;;;;;;;5117505;27;20087;-69
2023/06/15 09:59:46;;;;;;;6.93;2.40;;;;;;;;;;5115934;27;20079;-69
2023/06/15 10:02:13;;;;;;;4.72;2.03;;;;;;;;;;5134964;27;20046;-69
2023/06/15 10:04:41;;;;;;;8.25;2.20;;;;;;;;;;5117499;27;20043;-69
2023/06/15 10:07:11;;;;;;;7.57;2.00;;;;;;;;;;5135154;27;20035;-69
2023/06/15 10:09:44;;;;;;;26.70;3.70;;;;;;;;;;5135592;27;20043;-69
2023/06/15 10:12:16;;;;;;;6.72;1.77;;;;;;;;;;5116884;27;20114;-69
2023/06/15 10:14:45;;;;;;;4.55;1.95;;;;;;;;;;5110930;27;20042;-68
2023/06/15 10:17:14;;;;;;;6.03;1.65;;;;;;;;;;5132018;27;20054;-67
2023/06/15 10:19:43;;;;;;;4.72;2.03;;;;;;;;;;5117305;27;20062;-66
2023/06/15 10:22:19;;;;;;;4.28;1.83;;;;;;;;;;5114666;27;20126;-67
2023/06/15 10:24:46;;;;;;;3.33;1.60;;;;;;;;;;5116406;27;20043;-66
2023/06/15 10:27:12;;;;;;;7.15;2.10;;;;;;;;;;5134103;27;20050;-66
2023/06/15 10:29:41;;;;;;;5.65;2.10;;;;;;;;;;5109057;28;20556;-66
2023/06/15 10:32:21;;;;;;;8.68;2.83;;;;;;;;;;5095434;28;20043;-67
2023/06/15 10:34:59;;;;;;;4.80;1.77;;;;;;;;;;5113679;28;20095;-67
2023/06/15 10:37:49;;;;;;;6.75;2.13;;;;;;;;;;5083834;28;20058;-67
2023/06/15 10:40:19;;;;;;;4.85;2.00;;;;;;;;;;5096261;28;20058;-67
2023/06/15 10:42:47;;;;;;;6.68;2.17;;;;;;;;;;5094920;28;20185;-67
2023/06/15 10:45:34;;;;;;;5.30;1.67;;;;;;;;;;5113583;28;20047;-67
2023/06/15 10:48:04;;;;;;;4.28;1.77;;;;;;;;;;5100777;28;20443;-66
2023/06/15 10:50:48;;;;;;;3.63;1.70;;;;;;;;;;5094328;27;20054;-68
2023/06/15 10:53:30;;;;;;;7.50;2.20;;;;;;;;;;5106783;27;20074;-69
2023/06/15 10:55:58;;;;;;;7.45;2.63;;;;;;;;;;5113927;28;20122;-67
2023/06/15 10:58:26;;;;;;;6.72;2.00;;;;;;;;;;5095485;28;20131;-67
2023/06/15 11:01:07;;;;;;;7.93;2.40;;;;;;;;;;5091965;28;20040;-67
2023/06/15 11:03:34;;;;;;;3.80;1.83;;;;;;;;;;5109532;28;20055;-66
2023/06/15 11:06:07;;;;;;;5.20;1.90;;;;;;;;;;5076055;28;20063;-67
2023/06/15 11:08:47;;;;;;;3.85;1.92;;;;;;;;;;5107748;28;20518;-67
2023/06/15 11:11:14;;;;;;;6.35;1.90;;;;;;;;;;5082398;28;20047;-67
2023/06/15 11:14:08;;;;;;;5.03;1.63;;;;;;;;;;5112122;28;20061;-67
2023/06/15 11:16:35;;;;;;;5.43;1.90;;;;;;;;;;5115097;27;20108;-68
2023/06/15 11:19:13;;;;;;;5.72;1.80;;;;;;;;;;5110896;28;20043;-67
2023/06/15 11:21:52;;;;;;;5.70;2.00;;;;;;;;;;5107189;28;20035;-67
2023/06/15 11:24:19;;;;;;;4.30;1.70;;;;;;;;;;5106624;28;20601;-67
2023/06/15 11:26:50;;;;;;;6.22;2.10;;;;;;;;;;5102101;28;20563;-67
2023/06/15 11:29:22;;;;;;;5.05;2.10;;;;;;;;;;5112361;27;20043;-67
2023/06/15 11:31:51;;;;;;;7.53;2.17;;;;;;;;;;5104179;27;20050;-67
2023/06/15 11:34:18;;;;;;;6.57;2.78;;;;;;;;;;5105438;27;20134;-67
2023/06/15 11:36:44;;;;;;;5.40;2.00;;;;;;;;;;5125056;27;20054;-67
2023/06/15 11:39:20;;;;;;;5.13;1.92;;;;;;;;;;5110191;27;20482;-67
2023/06/15 11:41:48;;;;;;;3.95;2.15;;;;;;;;;;5126483;27;20042;-67
2023/06/15 11:44:14;;;;;;;6.43;2.08;;;;;;;;;;5130262;27;20036;-67
2023/06/15 11:46:41;;;;;;;3.92;1.90;;;;;;;;;;5125917;27;20111;-67
2023/06/15 11:49:10;;;;;;;3.55;1.88;;;;;;;;;;5122532;27;20039;-67
2023/06/15 11:51:36;;;;;;;5.07;1.95;;;;;;;;;;5110461;27;20459;-67
2023/06/15 11:54:07;;;;;;;5.60;1.90;;;;;;;;;;5120487;27;20068;-67
2023/06/15 11:56:33;;;;;;;7.70;2.05;;;;;;;;;;5129278;27;20100;-67
2023/06/15 11:59:00;;;;;;;4.70;1.75;;;;;;;;;;5126917;27;20466;-67
2023/06/15 12:01:27;;;;;;;5.38;2.28;;;;;;;;;;5112677;27;20149;-67
2023/06/15 12:03:53;;;;;;;4.90;1.52;;;;;;;;;;5113287;27;20055;-67
2023/06/15 12:06:20;;;;;;;3.85;2.15;;;;;;;;;;5111530;27;20383;-67
2023/06/15 12:08:47;;;;;;;3.50;1.80;;;;;;;;;;5112608;27;20039;-67
2023/06/15 12:11:14;;;;;;;14.63;2.08;;;;;;;;;;5128478;27;20413;-67
2023/06/15 12:13:40;;;;;;;5.00;1.98;;;;;;;;;;5122600;27;20108;-67
2023/06/15 12:16:07;;;;;;;4.03;1.83;;;;;;;;;;5122056;27;20498;-67
2023/06/15 12:18:34;;;;;;;3.97;2.13;;;;;;;;;;5107248;27;20135;-67
2023/06/15 12:21:04;;;;;;;2.78;1.52;;;;;;;;;;5126348;27;20055;-67
2023/06/15 12:23:31;;;;;;;5.53;1.70;;;;;;;;;;5135546;27;20100;-67
2023/06/15 12:25:57;;;;;;;5.65;1.77;;;;;;;;;;5128385;27;20851;-67
2023/06/15 12:28:25;;;;;;;5.80;1.90;;;;;;;;;;5129707;27;20046;-67
2023/06/15 12:30:52;;;;;;;2.83;1.45;;;;;;;;;;5124558;27;20367;-67
2023/06/15 12:33:38;;;;;;;3.00;1.50;;;;;;;;;;5093652;27;20478;-67
2023/06/15 12:36:09;;;;;;;7.13;2.35;;;;;;;;;;5121158;27;20406;-67
2023/06/15 12:38:35;;;;;;;4.88;2.28;;;;;;;;;;5129011;27;20051;-67
2023/06/15 12:41:01;;;;;;;6.68;2.03;;;;;;;;;;5112730;27;20054;-66
2023/06/15 12:43:27;;;;;;;5.07;1.60;;;;;;;;;;5113812;27;20035;-67
2023/06/15 12:45:54;;;;;;;5.20;2.00;;;;;;;;;;5109144;27;20047;-67
2023/06/15 12:48:22;;;;;;;3.88;1.77;;;;;;;;;;5110100;27;20047;-66
2023/06/15 12:50:50;;;;;;;6.35;2.10;;;;;;;;;;5128654;27;20406;-67
2023/06/15 12:53:16;;;;;;;6.07;2.03;;;;;;;;;;5107030;28;20047;-67
2023/06/15 12:55:42;;;;;;;5.65;1.85;;;;;;;;;;5126090;27;20127;-67
2023/06/15 12:58:09;;;;;;;4.40;1.80;;;;;;;;;;5129581;27;20534;-67
2023/06/15 13:00:37;;;;;;;8.77;2.03;;;;;;;;;;5129457;28;20451;-67
2023/06/15 13:03:08;;;;;;;5.40;1.95;;;;;;;;;;5108677;28;20050;-67
2023/06/15 13:05:35;;;;;;;4.35;1.75;;;;;;;;;;5121705;27;20047;-67
2023/06/15 13:08:02;;;;;;;3.50;2.05;;;;;;;;;;5127310;28;20043;-67
2023/06/15 13:10:29;;;;;;;6.80;1.88;;;;;;;;;;5126231;27;20145;-67
2023/06/15 13:12:55;;;;;;;3.42;1.77;;;;;;;;;;5110832;28;20047;-67
2023/06/15 13:15:22;;;;;;;6.03;1.90;;;;;;;;;;5107493;27;20047;-66
2023/06/15 13:17:49;;;;;;;3.22;1.50;;;;;;;;;;5142220;27;20478;-67
2023/06/15 13:20:15;;;;;;;3.90;1.98;;;;;;;;;;5116214;27;20039;-67
2023/06/15 13:22:41;;;;;;;7.25;2.05;;;;;;;;;;5115469;27;20509;-67
2023/06/15 13:25:08;;;;;;;7.82;1.80;;;;;;;;;;5133219;27;20039;-67
2023/06/15 13:27:37;;;;;;;3.95;1.80;;;;;;;;;;5133470;27;20043;-67
2023/06/15 13:30:05;;;;;;;3.95;1.70;;;;;;;;;;5115746;27;20054;-67
2023/06/15 13:32:32;;;;;;;4.28;1.80;;;;;;;;;;5115770;27;20047;-68
2023/06/15 13:34:58;;;;;;;4.07;1.90;;;;;;;;;;5130678;27;20043;-67
2023/06/15 13:37:24;;;;;;;5.93;1.60;;;;;;;;;;5133856;27;20047;-67
2023/06/15 13:39:51;;;;;;;3.35;2.00;;;;;;;;;;5132839;27;20490;-67
2023/06/15 13:42:17;;;;;;;6.90;2.20;;;;;;;;;;5115782;27;20065;-67
2023/06/15 13:44:43;;;;;;;4.18;1.85;;;;;;;;;;5131912;27;20043;-68
2023/06/15 13:47:09;;;;;;;3.55;1.38;;;;;;;;;;5132117;27;20170;-67
2023/06/15 13:49:35;;;;;;;4.95;1.80;;;;;;;;;;5115213;27;20115;-67
2023/06/15 13:52:02;;;;;;;6.18;2.05;;;;;;;;;;5133818;27;20043;-67
2023/06/15 13:54:28;;;;;;;4.13;1.90;;;;;;;;;;5111993;27;20047;-67
2023/06/15 13:56:54;;;;;;;4.45;1.42;;;;;;;;;;5132958;27;20082;-67
2023/06/15 13:59:21;;;;;;;3.92;1.70;;;;;;;;;;5114560;27;20047;-67
2023/06/15 14:01:47;;;;;;;4.60;1.75;;;;;;;;;;5115457;27;20139;-68
2023/06/15 14:04:13;;;;;;;4.95;1.80;;;;;;;;;;5114128;27;20126;-67
2023/06/15 14:06:39;;;;;;;5.78;1.80;;;;;;;;;;5112910;27;20053;-67
2023/06/15 14:09:05;;;;;;;6.18;2.17;;;;;;;;;;5132759;27;20465;-67
2023/06/15 14:11:32;;;;;;;5.50;1.83;;;;;;;;;;5112767;27;20043;-67
2023/06/15 14:13:58;;;;;;;2.85;1.38;;;;;;;;;;5129663;27;20423;-68
2023/06/15 14:16:24;;;;;;;6.07;1.85;;;;;;;;;;5128636;27;20039;-67
2023/06/15 14:18:50;;;;;;;4.32;1.67;;;;;;;;;;5131375;27;20039;-67
2023/06/15 14:21:17;;;;;;;7.47;2.05;;;;;;;;;;5111760;27;20459;-67
2023/06/15 14:23:43;;;;;;;6.38;1.60;;;;;;;;;;5110770;27;20069;-67
2023/06/15 14:26:09;;;;;;;6.72;1.60;;;;;;;;;;5127576;27;20416;-67
2023/06/15 14:28:36;;;;;;;5.80;2.15;;;;;;;;;;5110770;28;20054;-67
2023/06/15 14:31:03;;;;;;;3.97;1.88;;;;;;;;;;5107967;27;20414;-67
2023/06/15 14:33:29;;;;;;;7.03;2.00;;;;;;;;;;5128429;27;20070;-67
2023/06/15 14:35:56;;;;;;;5.55;1.83;;;;;;;;;;5132481;27;20043;-67
2023/06/15 14:38:23;;;;;;;3.70;1.80;;;;;;;;;;5109459;27;20487;-67
2023/06/15 14:40:52;;;;;;;6.60;1.55;;;;;;;;;;5131398;27;20043;-67
2023/06/15 14:43:18;;;;;;;5.43;1.85;;;;;;;;;;5108506;27;20039;-67